Time;durP1;ratioP1;P1;durP2;ratioP2;P2;SDS_P1;SDS_P2;PMS_P1;PMS_P2;Temp;Humidity;BMP_temperature;BMP_pressure;BME280_temperature;BME280_humidity;BME280_pressure;Samples;Min_cycle;Max_cycle;Signal;HPM_P1;HPM_P2
2022/07/01 00:00:20;;;;;;;;;4.00;2.00;;;;;15.84;62.90;101332.72;6277009;22;45377;-74
2022/07/01 00:02:45;;;;;;;;;2.67;2.67;;;;;15.80;62.65;101331.03;6279086;22;45093;-74
2022/07/01 00:05:11;;;;;;;;;2.25;2.25;;;;;15.77;63.05;101332.84;6277516;22;46197;-75
2022/07/01 00:07:36;;;;;;;;;4.50;2.75;;;;;15.78;63.37;101332.81;6277817;22;45304;-75
2022/07/01 00:10:03;;;;;;;;;2.75;1.00;;;;;15.85;63.21;101350.41;6279688;22;45252;-74
2022/07/01 00:12:28;;;;;;;;;1.75;1.75;;;;;15.74;63.45;101338.19;6250751;22;45430;-75
2022/07/01 00:14:54;;;;;;;;;2.75;2.75;;;;;15.80;63.80;101352.28;6278934;22;46144;-74
2022/07/01 00:17:20;;;;;;;;;2.00;2.00;;;;;15.68;63.71;101335.59;6250908;22;45420;-75
2022/07/01 00:19:45;;;;;;;;;2.00;2.00;;;;;15.80;63.87;101354.91;6250942;22;45264;-75
2022/07/01 00:22:10;;;;;;;;;2.50;2.50;;;;;15.78;64.20;101354.06;6278839;22;45373;-75
2022/07/01 00:24:36;;;;;;;;;4.00;4.00;;;;;15.78;63.80;101362.03;6278605;22;45395;-74
2022/07/01 00:27:01;;;;;;;;;2.50;2.50;;;;;15.70;63.91;101344.47;6278846;22;45292;-75
2022/07/01 00:29:27;;;;;;;;;3.50;3.00;;;;;15.72;64.18;101355.94;6277106;22;45369;-74
2022/07/01 00:31:52;;;;;;;;;3.50;2.00;;;;;15.73;64.11;101350.59;6278847;22;45595;-75
2022/07/01 00:34:17;;;;;;;;;1.00;1.00;;;;;15.72;64.42;101345.31;6278365;22;46272;-75
2022/07/01 00:36:43;;;;;;;;;3.00;3.00;;;;;15.81;64.27;101350.47;6250726;22;45264;-74
2022/07/01 00:39:08;;;;;;;;;4.00;4.00;;;;;15.77;64.01;101346.09;6279304;22;45389;-74
2022/07/01 00:41:33;;;;;;;;;2.75;2.75;;;;;15.90;64.34;101371.56;6278604;22;45359;-74
2022/07/01 00:43:59;;;;;;;;;4.00;4.00;;;;;15.91;64.08;101378.66;6251029;22;47951;-75
2022/07/01 00:46:25;;;;;;;;;2.75;2.75;;;;;15.80;64.19;101360.22;6278554;22;45134;-75
2022/07/01 00:48:53;;;;;;;;;4.00;3.25;;;;;15.91;64.08;101389.28;6250593;22;45331;-75
2022/07/01 00:51:19;;;;;;;;;2.00;2.00;;;;;15.86;64.31;101376.06;6250464;22;45403;-75
2022/07/01 00:53:45;;;;;;;;;2.25;1.75;;;;;15.80;64.21;101372.63;6251078;22;48028;-75
2022/07/01 00:56:10;;;;;;;;;3.00;3.00;;;;;15.89;64.33;101383.09;6278624;22;45192;-74
2022/07/01 00:58:37;;;;;;;;;3.50;3.00;;;;;15.76;64.04;101373.56;6278921;22;45338;-75
2022/07/01 01:01:02;;;;;;;;;4.00;2.00;;;;;15.81;64.37;101391.19;6250873;22;46121;-75
2022/07/01 01:03:29;;;;;;;;;4.75;4.50;;;;;15.61;64.50;101361.34;6278266;22;45428;-74
2022/07/01 01:05:57;;;;;;;;;3.00;3.00;;;;;15.70;64.52;101371.00;6278695;22;45172;-75
2022/07/01 01:08:22;;;;;;;;;3.00;3.00;;;;;15.78;64.86;101391.22;6278502;22;45102;-74
2022/07/01 01:10:49;;;;;;;;;1.75;1.75;;;;;15.72;64.72;101391.34;6278554;22;45500;-75
2022/07/01 01:13:15;;;;;;;;;3.00;3.00;;;;;15.73;64.58;101389.53;6250212;22;47392;-75
2022/07/01 01:15:40;;;;;;;;;2.00;2.00;;;;;15.59;64.98;101374.66;6278235;22;45242;-74
2022/07/01 01:18:06;;;;;;;;;4.75;4.00;;;;;15.69;65.05;101396.69;6278262;22;45386;-74
2022/07/01 01:20:36;;;;;;;;;4.25;4.25;;;;;15.69;64.97;101402.00;6278208;22;45345;-75
2022/07/01 01:23:03;;;;;;;;;5.75;5.00;;;;;15.56;65.38;101384.47;6250285;22;46152;-74
2022/07/01 01:25:28;;;;;;;;;7.00;4.00;;;;;15.58;65.48;101394.16;6250501;22;45626;-74
2022/07/01 01:27:55;;;;;;;;;4.00;4.00;;;;;15.54;65.31;101387.13;6278397;22;45279;-75
2022/07/01 01:30:20;;;;;;;;;4.25;4.25;;;;;15.53;65.48;101398.66;6278311;22;45397;-75
2022/07/01 01:32:46;;;;;;;;;3.25;3.25;;;;;15.58;65.32;101409.19;6278463;22;45796;-75
2022/07/01 01:35:13;;;;;;;;;4.25;4.25;;;;;15.50;65.54;101392.47;6276177;22;45527;-74
2022/07/01 01:37:38;;;;;;;;;3.00;3.00;;;;;15.49;65.79;101398.69;6278589;22;45235;-75
2022/07/01 01:40:04;;;;;;;;;5.00;4.00;;;;;15.47;65.28;101396.06;6250318;22;45209;-75
2022/07/01 01:42:30;;;;;;;;;3.75;3.75;;;;;15.43;65.86;101391.69;6249983;22;46242;-75
2022/07/01 01:44:56;;;;;;;;;6.00;4.25;;;;;15.44;65.58;101404.94;6250213;22;45334;-75
2022/07/01 01:47:22;;;;;;;;;4.00;4.00;;;;;15.50;65.89;101419.88;6278339;22;45196;-74
2022/07/01 01:49:47;;;;;;;;;3.75;3.00;;;;;15.41;65.87;101407.63;6250376;22;45222;-75
2022/07/01 01:52:12;;;;;;;;;4.00;4.00;;;;;15.48;65.93;101423.50;6250197;22;47105;-74
2022/07/01 01:54:38;;;;;;;;;5.75;5.00;;;;;15.40;66.18;101411.19;6278332;22;45438;-75
2022/07/01 01:57:04;;;;;;;;;6.25;6.25;;;;;15.54;66.08;101428.72;6278738;22;45233;-75
2022/07/01 01:59:30;;;;;;;;;4.25;4.25;;;;;15.44;65.83;101420.84;6250983;22;45475;-75
2022/07/01 02:01:55;;;;;;;;;3.25;3.25;;;;;15.46;65.93;101423.50;6277424;22;47226;-74
2022/07/01 02:04:23;;;;;;;;;4.00;3.00;;;;;15.49;66.03;101428.75;6279120;22;45259;-75
2022/07/01 02:06:49;;;;;;;;;3.75;3.75;;;;;15.43;66.21;101429.72;6279510;22;45369;-75
2022/07/01 02:09:14;;;;;;;;;5.00;4.00;;;;;15.28;65.97;101407.81;6251636;22;45876;-74
2022/07/01 02:11:40;;;;;;;;;4.50;3.50;;;;;15.33;66.17;101405.97;6279348;22;45249;-74
2022/07/01 02:14:05;;;;;;;;;2.00;2.00;;;;;15.42;66.33;101429.72;6278757;22;45196;-75
2022/07/01 02:16:31;;;;;;;;;3.50;3.50;;;;;15.22;66.41;101399.03;6251685;22;45187;-75
2022/07/01 02:18:56;;;;;;;;;2.50;2.50;;;;;15.34;66.40;101434.25;6279109;22;45412;-75
2022/07/01 02:21:22;;;;;;;;;3.25;3.25;;;;;15.40;66.10;101434.19;6251339;22;47148;-74
2022/07/01 02:23:48;;;;;;;;;2.00;2.00;;;;;15.43;66.23;101443.00;6279312;22;45161;-75
2022/07/01 02:26:13;;;;;;;;;5.00;4.00;;;;;15.26;66.40;101406.94;6279489;22;45384;-74
2022/07/01 02:28:39;;;;;;;;;4.00;4.00;;;;;15.28;66.28;101419.28;6279407;22;45213;-74
2022/07/01 02:31:04;;;;;;;;;5.00;4.00;;;;;15.38;66.23;101450.13;6279381;22;46340;-75
2022/07/01 02:33:30;;;;;;;;;4.00;4.00;;;;;15.19;66.44;101414.97;6251057;22;45863;-74
2022/07/01 02:35:56;;;;;;;;;3.50;3.50;;;;;15.23;66.67;101426.44;6279440;22;45335;-74
2022/07/01 02:38:22;;;;;;;;;4.25;4.25;;;;;15.26;66.75;101437.00;6278963;22;45295;-75
2022/07/01 02:40:47;;;;;;;;;3.25;3.25;;;;;15.11;67.00;101413.31;6279128;22;45393;-75
2022/07/01 02:43:13;;;;;;;;;4.00;3.00;;;;;15.28;66.57;101461.75;6279136;22;45291;-75
2022/07/01 02:45:39;;;;;;;;;6.00;4.00;;;;;15.15;66.42;101436.25;6251747;22;45326;-74
2022/07/01 02:48:05;;;;;;;;;4.75;3.50;;;;;15.08;66.50;101421.31;6250927;22;45276;-74
2022/07/01 02:50:31;;;;;;;;;6.25;4.75;;;;;15.23;66.82;101455.59;6279411;22;46136;-74
2022/07/01 02:52:56;;;;;;;;;7.75;5.00;;;;;15.13;66.75;101440.69;6279984;22;45086;-75
2022/07/01 02:55:21;;;;;;;;;4.75;4.00;;;;;15.06;66.88;101433.72;6279631;22;45267;-75
2022/07/01 02:57:49;;;;;;;;;6.25;6.25;;;;;15.10;67.08;101440.72;6279208;22;45437;-74
2022/07/01 03:00:15;;;;;;;;;3.00;3.00;;;;;15.18;66.74;101454.78;6251213;22;47018;-74
2022/07/01 03:02:41;;;;;;;;;4.00;4.00;;;;;15.08;66.92;101438.09;6279037;22;45719;-75
2022/07/01 03:05:07;;;;;;;;;4.00;4.00;;;;;15.06;66.85;101439.91;6279228;22;45365;-75
2022/07/01 03:07:35;;;;;;;;;4.00;4.00;;;;;15.08;66.92;101448.72;6251321;22;45601;-75
2022/07/01 03:10:00;;;;;;;;;3.75;3.75;;;;;15.06;67.10;101447.84;6278841;22;46305;-74
2022/07/01 03:12:29;;;;;;;;;6.50;4.00;;;;;15.03;66.77;101441.72;6278184;22;45225;-74
2022/07/01 03:14:58;;;;;;;;;3.00;3.00;;;;;14.99;66.87;101449.72;6279546;22;45314;-75
2022/07/01 03:17:29;;;;;;;;;3.25;2.00;;;;;15.04;66.80;101457.59;6278580;22;45121;-74
2022/07/01 03:19:55;;;;;;;;;5.00;5.00;;;;;14.94;66.93;101443.56;6250595;22;47669;-74
2022/07/01 03:22:22;;;;;;;;;4.00;4.00;;;;;15.04;67.25;101472.63;6278906;22;45291;-74
2022/07/01 03:24:49;;;;;;;;;3.00;3.00;;;;;14.95;67.02;101463.00;6279284;22;45248;-74
2022/07/01 03:27:15;;;;;;;;;3.25;3.25;;;;;14.87;67.00;101449.81;6278876;22;45168;-75
2022/07/01 03:29:41;;;;;;;;;3.00;3.00;;;;;14.99;67.01;101473.56;6279143;22;45459;-74
2022/07/01 03:32:08;;;;;;;;;4.00;3.00;;;;;14.98;66.84;101484.19;6278949;22;45210;-75
2022/07/01 03:34:34;;;;;;;;;3.25;3.25;;;;;14.95;66.82;101478.91;6250811;22;45312;-74
2022/07/01 03:36:59;;;;;;;;;3.00;3.00;;;;;14.79;67.01;101454.31;6279010;22;45343;-75
2022/07/01 03:39:25;;;;;;;;;4.00;3.00;;;;;14.81;67.26;101465.78;6279166;22;46419;-74
2022/07/01 03:41:50;;;;;;;;;3.00;3.00;;;;;14.72;67.21;101463.22;6251229;22;45408;-75
2022/07/01 03:44:15;;;;;;;;;4.00;3.00;;;;;14.71;67.31;101466.75;6279529;22;45378;-74
2022/07/01 03:46:41;;;;;;;;;3.50;2.50;;;;;14.81;67.35;101486.09;6276949;22;45229;-75
2022/07/01 03:49:08;;;;;;;;;2.75;2.75;;;;;14.71;67.19;101472.94;6278937;22;45359;-75
2022/07/01 03:51:33;;;;;;;;;2.00;2.00;;;;;14.74;67.38;101485.28;6279159;22;45416;-75
2022/07/01 03:56:43;;;;;;;;;4.00;4.00;;;;;14.75;67.19;101506.50;6280133;22;45235;-75
2022/07/01 03:59:08;;;;;;;;;3.00;3.00;;;;;14.70;67.00;101504.75;6279981;22;46153;-75
2022/07/01 04:01:34;;;;;;;;;3.75;3.75;;;;;14.64;67.01;101494.22;6279938;22;45180;-75
2022/07/01 04:03:59;;;;;;;;;2.00;2.00;;;;;14.62;66.87;101506.59;6277857;22;45213;-74
2022/07/01 04:06:25;;;;;;;;;2.00;2.00;;;;;14.68;66.60;101518.03;6279840;22;45210;-75
2022/07/01 04:08:50;;;;;;;;;2.50;2.50;;;;;14.52;67.09;101496.06;6279529;22;45327;-74
2022/07/01 04:11:16;;;;;;;;;3.50;2.25;;;;;14.57;66.91;101504.00;6279752;22;45192;-75
2022/07/01 04:13:49;;;;;;;;;1.25;1.25;;;;;14.52;66.70;101504.03;6250236;22;45191;-74
2022/07/01 04:16:15;;;;;;;;;2.00;2.00;;;;;14.40;66.67;101490.81;6279410;22;45223;-74
2022/07/01 04:18:41;;;;;;;;;3.00;3.00;;;;;14.52;67.05;101517.28;6278320;22;45515;-74
2022/07/01 04:23:50;;;;;;;;;4.25;2.00;;;;;14.36;66.96;101505.00;6278655;22;45315;-74
2022/07/01 04:26:16;;;;;;;;;3.75;3.25;;;;;14.31;66.65;101504.16;6276808;22;45625;-74
2022/07/01 04:28:42;;;;;;;;;3.00;2.00;;;;;14.26;67.00;101501.53;6276458;22;46475;-74
2022/07/01 04:31:07;;;;;;;;;1.00;1.00;;;;;14.39;67.00;101522.63;6278816;22;45260;-75
2022/07/01 04:33:32;;;;;;;;;3.00;3.00;;;;;14.32;67.24;101512.06;6278746;22;45145;-74
2022/07/01 04:35:58;;;;;;;;;2.50;1.75;;;;;14.23;66.92;101498.03;6279046;22;45270;-74
2022/07/01 04:38:23;;;;;;;;;3.00;3.00;;;;;14.21;67.43;101491.84;6278645;22;45383;-73
2022/07/01 04:43:32;;;;;;;;;3.00;3.00;;;;;14.27;66.91;101518.28;6278947;22;45235;-73
2022/07/01 04:45:57;;;;;;;;;4.00;4.00;;;;;14.28;67.03;101515.63;6278512;22;45601;-75
2022/07/01 04:48:23;;;;;;;;;2.50;2.50;;;;;14.36;67.59;101538.56;6278414;22;46056;-75
2022/07/01 04:50:48;;;;;;;;;2.50;2.00;;;;;14.36;67.22;101539.44;6250973;22;45188;-75
2022/07/01 04:53:14;;;;;;;;;3.00;3.00;;;;;14.31;66.94;101536.81;6278995;22;45152;-75
2022/07/01 04:55:39;;;;;;;;;4.75;3.75;;;;;14.24;67.25;101524.47;6278750;22;45435;-76
2022/07/01 04:58:05;;;;;;;;;3.00;3.00;;;;;14.19;67.31;101526.28;6250867;22;47093;-75
2022/07/01 05:00:30;;;;;;;;;4.00;3.00;;;;;14.26;67.19;101549.19;6278454;22;45332;-76
2022/07/01 05:02:56;;;;;;;;;2.00;2.00;;;;;14.20;67.02;101535.13;6278876;22;45245;-75
2022/07/01 05:05:21;;;;;;;;;5.50;4.50;;;;;14.15;67.04;101535.16;6278766;22;45461;-76
2022/07/01 05:07:47;;;;;;;;;3.75;2.50;;;;;14.25;67.47;101543.94;6250298;22;46386;-73
2022/07/01 05:10:12;;;;;;;;;3.00;3.00;;;;;14.18;67.24;101528.94;6278618;22;45352;-76
2022/07/01 05:12:38;;;;;;;;;2.50;2.25;;;;;14.27;67.26;101561.56;6278459;22;45299;-73
2022/07/01 05:15:04;;;;;;;;;2.00;2.00;;;;;14.26;67.41;101554.50;6278770;22;45271;-75
2022/07/01 05:21:55;;;;;;;;;2.50;1.75;;;;;14.31;67.28;101557.13;6276137;22;46921;-73
2022/07/01 05:22:58;;;;;;;;;4.00;4.00;;;;;14.36;67.34;101555.31;6278171;22;45374;-73
2022/07/01 05:25:23;;;;;;;;;4.50;3.50;;;;;14.37;67.42;101541.19;6276305;22;45424;-74
2022/07/01 05:27:49;;;;;;;;;2.75;2.00;;;;;14.33;67.16;101531.50;6250414;22;46047;-73
2022/07/01 05:30:14;;;;;;;;;2.50;2.25;;;;;14.37;66.87;101540.31;6275327;22;45374;-74
2022/07/01 05:32:40;;;;;;;;;3.00;3.00;;;;;14.52;66.69;101553.47;6276009;22;45114;-74
2022/07/01 05:35:05;;;;;;;;;2.00;2.00;;;;;14.51;66.73;101552.59;6251949;22;45463;-73
2022/07/01 05:37:31;;;;;;;;;3.00;3.00;;;;;14.48;66.81;101538.47;6279462;22;46452;-73
2022/07/01 05:39:56;;;;;;;;;3.00;3.00;;;;;14.56;66.42;101553.44;6279410;22;45140;-73
2022/07/01 05:42:21;;;;;;;;;2.25;2.25;;;;;14.50;66.29;101542.84;6279711;22;45200;-73
2022/07/01 05:44:47;;;;;;;;;3.75;3.50;;;;;14.62;66.66;101559.59;6277226;22;45390;-73
2022/07/01 05:47:12;;;;;;;;;2.50;2.50;;;;;14.51;66.59;101543.72;6251601;22;46974;-74
2022/07/01 05:49:37;;;;;;;;;4.00;4.00;;;;;14.64;66.12;101564.00;6279423;22;45185;-74
2022/07/01 05:52:03;;;;;;;;;2.00;2.00;;;;;14.57;66.47;101554.34;6252001;22;45161;-75
2022/07/01 05:54:28;;;;;;;;;3.75;3.25;;;;;14.59;66.23;101549.00;6279682;22;45401;-74
2022/07/01 05:56:54;;;;;;;;;3.00;1.00;;;;;14.61;65.86;101548.09;6251488;22;46042;-74
2022/07/01 05:59:19;;;;;;;;;2.00;2.00;;;;;14.65;65.69;101554.25;6251374;22;45280;-73
2022/07/01 06:01:46;;;;;;;;;4.00;2.50;;;;;14.70;66.12;101561.31;6279653;22;45370;-73
2022/07/01 06:04:11;;;;;;;;;3.00;3.00;;;;;14.71;65.64;101562.19;6276926;22;45364;-73
2022/07/01 06:06:37;;;;;;;;;3.25;2.50;;;;;14.65;65.42;101548.97;6278991;22;45310;-73
2022/07/01 06:09:02;;;;;;;;;2.00;2.00;;;;;14.76;65.13;101574.50;6251356;22;45378;-73
2022/07/01 06:11:28;;;;;;;;;4.25;3.25;;;;;14.63;65.37;101549.00;6251828;22;45260;-72
2022/07/01 06:13:53;;;;;;;;;2.00;2.00;;;;;14.75;65.05;101570.09;6279136;22;45323;-73
2022/07/01 06:16:36;;;;;;;;;4.50;4.50;;;;;14.76;65.21;101577.16;6277502;22;46906;-73
2022/07/01 06:19:01;;;;;;;;;3.25;3.25;;;;;14.69;64.87;101562.19;6278947;22;45377;-74
2022/07/01 06:21:27;;;;;;;;;3.00;3.00;;;;;14.71;65.03;101571.00;6251183;22;45633;-74
2022/07/01 06:23:52;;;;;;;;;3.00;2.00;;;;;14.75;65.03;101570.09;6251543;22;45423;-73
2022/07/01 06:26:18;;;;;;;;;4.00;3.00;;;;;14.87;65.25;101581.50;6279225;22;46522;-74
2022/07/01 06:28:43;;;;;;;;;2.50;2.00;;;;;14.84;65.43;101570.94;6276283;22;45359;-74
2022/07/01 06:31:08;;;;;;;;;2.00;2.00;;;;;14.82;64.98;101568.28;6279680;22;45342;-74
2022/07/01 06:33:34;;;;;;;;;2.00;2.00;;;;;14.87;64.78;101570.91;6279351;22;45177;-73
2022/07/01 06:35:59;;;;;;;;;3.00;2.00;;;;;14.91;64.68;101581.44;6251532;22;46928;-74
2022/07/01 06:38:25;;;;;;;;;2.25;2.00;;;;;14.97;65.05;101581.41;6279057;22;45217;-74
2022/07/01 06:43:35;;;;;;;;;1.00;1.00;;;;;15.05;64.81;101589.31;6279043;22;45232;-74
2022/07/01 06:46:01;;;;;;;;;1.25;1.25;;;;;15.16;64.92;101595.38;6278340;22;45267;-74
2022/07/01 06:48:26;;;;;;;;;2.50;2.50;;;;;15.17;64.78;101591.84;6251056;22;45247;-74
2022/07/01 06:50:52;;;;;;;;;3.50;2.00;;;;;15.27;64.48;101602.38;6279033;22;45102;-74
2022/07/01 06:53:17;;;;;;;;;3.00;2.00;;;;;15.35;64.39;101614.66;6278930;22;45165;-75
2022/07/01 06:55:42;;;;;;;;;1.33;1.00;;;;;15.40;64.15;101599.59;6250812;22;47468;-75
2022/07/01 06:58:09;;;;;;;;;2.50;1.50;;;;;15.43;64.11;101596.03;6276798;22;45180;-75
2022/07/01 07:00:35;;;;;;;;;1.50;1.00;;;;;15.50;63.68;101604.78;6279201;22;45379;-75
2022/07/01 07:03:00;;;;;;;;;1.50;1.50;;;;;15.47;63.16;101595.09;6278836;22;45524;-75
2022/07/01 07:05:25;;;;;;;;;0.25;0.25;;;;;15.55;63.36;101593.22;6251116;22;46819;-75
2022/07/01 07:07:51;;;;;;;;;1.00;1.00;;;;;15.58;63.25;101587.91;6278978;22;45334;-74
2022/07/01 07:10:16;;;;;;;;;0.25;0.25;;;;;15.63;62.97;101590.50;6279192;22;45306;-74
2022/07/01 07:12:41;;;;;;;;;2.75;2.75;;;;;15.68;63.20;101599.28;6250377;22;45506;-74
2022/07/01 07:15:07;;;;;;;;;3.00;2.00;;;;;15.75;62.83;101598.38;6278874;22;46174;-74
2022/07/01 07:17:33;;;;;;;;;1.25;1.25;;;;;15.82;62.25;101604.47;6250867;22;45288;-74
2022/07/01 07:19:58;;;;;;;;;1.50;1.00;;;;;15.85;62.34;101604.44;6250851;22;45205;-74
2022/07/01 07:22:23;;;;;;;;;2.33;1.33;;;;;15.87;62.08;101600.84;6250724;22;45390;-75
2022/07/01 07:24:49;;;;;;;;;1.25;1.00;;;;;15.93;61.61;101591.97;6250866;22;47619;-75
2022/07/01 07:27:14;;;;;;;;;2.00;2.00;;;;;15.99;62.06;101588.34;6250343;22;45163;-74
2022/07/01 07:29:40;;;;;;;;;2.33;1.00;;;;;16.06;61.37;101593.56;6279516;22;45233;-75
2022/07/01 07:32:05;;;;;;;;;1.00;1.00;;;;;16.14;61.49;101593.44;6278659;22;45136;-74
2022/07/01 07:34:31;;;;;;;;;1.00;1.00;;;;;16.21;61.34;101595.13;6278396;22;45488;-74
2022/07/01 07:36:56;;;;;;;;;3.00;1.00;;;;;16.26;60.97;101595.94;6278695;22;45240;-76
2022/07/01 07:39:21;;;;;;;;;3.00;2.00;;;;;16.32;60.57;101579.91;6279002;22;45261;-76
2022/07/01 07:41:47;;;;;;;;;1.67;1.00;;;;;16.41;60.43;101593.97;6278614;22;45426;-77
2022/07/01 07:44:12;;;;;;;;;1.67;0.33;;;;;16.46;59.89;101593.00;6278290;22;45212;-76
2022/07/01 07:46:38;;;;;;;;;0.67;0.67;;;;;16.52;59.53;101595.59;6276483;22;45237;-74
2022/07/01 07:49:03;;;;;;;;;0.67;0.67;;;;;16.58;59.24;101588.44;6278787;22;45370;-77
2022/07/01 07:51:28;;;;;;;;;2.00;1.00;;;;;16.63;58.87;101589.25;6276668;22;45176;-77
2022/07/01 07:53:54;;;;;;;;;1.67;1.00;;;;;16.68;58.43;101593.59;6278075;22;45397;-78
2022/07/01 07:56:20;;;;;;;;;1.00;1.00;;;;;16.78;58.12;101590.81;6276049;22;45378;-77
2022/07/01 07:58:46;;;;;;;;;0.67;0.67;;;;;16.87;57.77;101598.66;6250465;22;45280;-78
2022/07/01 08:01:11;;;;;;;;;0.33;0.33;;;;;16.91;56.74;101582.59;6278331;22;45244;-79
2022/07/01 08:03:36;;;;;;;;;1.00;1.00;;;;;17.02;56.47;101597.50;6276015;22;47804;-74
2022/07/01 08:06:02;;;;;;;;;0.00;0.00;;;;;17.09;55.11;101592.06;6250629;22;45252;-78
2022/07/01 08:08:27;;;;;;;;;3.00;1.00;;;;;17.15;54.84;101596.38;6250105;22;45321;-77
2022/07/01 08:10:53;;;;;;;;;0.00;0.00;;;;;17.21;54.46;101598.94;6250247;22;45501;-78
2022/07/01 08:13:19;;;;;;;;;2.00;0.00;;;;;17.28;54.09;101600.59;6277890;22;45363;-77
2022/07/01 08:15:45;;;;;;;;;1.67;1.00;;;;;17.35;53.85;101599.59;6278107;22;45205;-77
2022/07/01 08:18:10;;;;;;;;;2.00;0.00;;;;;17.43;53.46;101591.47;6278338;22;45247;-77
2022/07/01 08:20:36;;;;;;;;;0.33;0.33;;;;;17.51;53.41;101599.28;6276328;22;45266;-76
2022/07/01 08:23:01;;;;;;;;;0.00;0.00;;;;;17.57;53.12;101610.72;6278564;22;45216;-76
2022/07/01 08:25:26;;;;;;;;;0.00;0.00;;;;;17.64;52.71;101612.38;6278844;22;45166;-77
2022/07/01 08:27:52;;;;;;;;;1.00;1.00;;;;;17.69;52.68;101614.03;6250184;22;45272;-77
2022/07/01 08:30:18;;;;;;;;;0.33;0.33;;;;;17.75;52.79;101609.50;6278404;22;45104;-79
2022/07/01 08:32:44;;;;;;;;;2.00;1.00;;;;;17.85;52.67;101615.53;6275626;22;46177;-79
2022/07/01 08:35:09;;;;;;;;;1.00;1.00;;;;;17.93;52.25;101616.25;6249771;22;45370;-79
2022/07/01 08:37:35;;;;;;;;;0.33;0.00;;;;;18.00;51.39;101615.22;6275734;22;45275;-79
2022/07/01 08:40:00;;;;;;;;;0.00;0.00;;;;;18.06;50.78;101615.09;6277985;22;45236;-77
2022/07/01 08:42:26;;;;;;;;;0.00;0.00;;;;;18.11;50.29;101609.66;6275873;22;47181;-80
2022/07/01 08:44:52;;;;;;;;;1.00;1.00;;;;;18.15;50.25;101616.72;6250674;22;45373;-80
2022/07/01 08:47:17;;;;;;;;;0.67;0.67;;;;;18.22;50.32;101609.44;6278564;22;45269;-79
2022/07/01 08:49:44;;;;;;;;;0.00;0.00;;;;;18.27;49.63;101610.22;6277542;22;45346;-79
2022/07/01 08:52:12;;;;;;;;;2.33;0.00;;;;;18.34;49.31;101619.84;6250170;22;46971;-83
2022/07/01 08:54:39;;;;;;;;;1.00;1.00;;;;;18.40;49.36;101618.84;6275915;22;45225;-79
2022/07/01 08:57:05;;;;;;;;;1.00;0.00;;;;;18.41;49.11;101621.44;6278063;22;45417;-76
2022/07/01 08:59:31;;;;;;;;;1.00;1.00;;;;;18.47;49.23;101624.00;6277881;22;45469;-79
2022/07/01 09:01:59;;;;;;;;;0.67;0.33;;;;;18.53;48.84;101636.31;6249151;22;47659;-77
2022/07/01 09:04:25;;;;;;;;;1.67;1.67;;;;;18.61;48.82;101636.16;6249956;22;45337;-80
2022/07/01 09:06:51;;;;;;;;;1.00;1.00;;;;;18.71;48.72;101643.00;6244342;22;45432;-79
2022/07/01 09:09:20;;;;;;;;;1.67;0.33;;;;;18.78;48.75;101622.44;6275855;22;45348;-80
2022/07/01 09:11:53;;;;;;;;;1.00;0.00;;;;;18.86;48.03;101620.47;6248728;22;48348;-79
2022/07/01 09:14:23;;;;;;;;;0.67;0.67;;;;;18.96;48.18;101619.34;6248469;22;45162;-79
2022/07/01 09:17:01;;;;;;;;;1.00;0.33;;;;;19.08;48.91;101639.50;6248205;22;45445;-79
2022/07/01 09:19:30;;;;;;;;;0.00;0.00;;;;;19.14;47.60;101618.88;6276407;22;45279;-78
2022/07/01 09:21:59;;;;;;;;;1.00;0.00;;;;;19.20;48.12;101635.66;6275398;22;45456;-80
2022/07/01 09:24:36;;;;;;;;;0.00;0.00;;;;;19.29;47.83;101635.41;6275842;22;45284;-78
2022/07/01 09:27:08;;;;;;;;;1.00;1.00;;;;;19.43;47.36;101643.06;6248265;22;45345;-79
2022/07/01 09:29:36;;;;;;;;;1.00;1.00;;;;;19.49;46.94;101637.59;6276714;22;45232;-77
2022/07/01 09:32:05;;;;;;;;;1.00;1.00;;;;;19.59;47.71;101636.38;6274279;22;48370;-79
2022/07/01 09:34:34;;;;;;;;;0.67;0.67;;;;;19.70;47.09;101649.50;6247450;22;45728;-78
2022/07/01 09:37:00;;;;;;;;;0.00;0.00;;;;;19.77;46.89;101635.06;6248426;22;45584;-79
2022/07/01 09:39:25;;;;;;;;;0.00;0.00;;;;;19.89;46.21;101636.50;6276288;22;45347;-78
2022/07/01 09:41:55;;;;;;;;;1.00;0.00;;;;;19.99;46.16;101643.34;6275646;22;45581;-78
2022/07/01 09:44:20;;;;;;;;;1.00;0.00;;;;;20.11;46.00;101634.97;6242876;22;45741;-77
2022/07/01 09:46:54;;;;;;;;;1.00;0.00;;;;;20.17;45.59;101641.94;6271581;22;45557;-77
2022/07/01 09:49:19;;;;;;;;;1.00;1.00;;;;;20.25;45.76;101639.91;6244418;22;45616;-78
2022/07/01 09:51:45;;;;;;;;;0.00;0.00;;;;;20.32;46.25;101635.28;6245158;22;47490;-76
2022/07/01 09:54:12;;;;;;;;;0.00;0.00;;;;;20.31;45.29;101634.38;6273493;22;45402;-76
2022/07/01 09:56:38;;;;;;;;;1.67;0.67;;;;;20.28;45.24;101635.34;6273591;22;45442;-77
2022/07/01 09:59:04;;;;;;;;;0.00;0.00;;;;;20.30;45.45;101631.78;6269135;22;45495;-77
2022/07/01 10:01:31;;;;;;;;;1.00;1.00;;;;;20.31;44.51;101633.50;6272310;22;47839;-75
2022/07/01 10:03:58;;;;;;;;;0.67;0.67;;;;;20.36;44.20;101642.28;6273649;22;45282;-77
2022/07/01 10:06:29;;;;;;;;;0.00;0.00;;;;;20.37;43.88;101631.53;6273172;22;45484;-76
2022/07/01 10:09:10;;;;;;;;;0.00;0.00;;;;;20.32;43.73;101637.94;6271183;22;45311;-77
2022/07/01 10:11:57;;;;;;;;;1.00;0.67;;;;;20.20;43.45;101640.03;6273074;22;45460;-77
2022/07/01 10:14:23;;;;;;;;;0.00;0.00;;;;;20.18;43.78;101635.66;6245457;22;45393;-76
2022/07/01 10:16:49;;;;;;;;;0.33;0.33;;;;;20.26;43.67;101642.56;6246000;22;45395;-77
2022/07/01 10:19:20;;;;;;;;;2.67;1.00;;;;;20.42;43.58;101639.41;6245536;22;45399;-78
2022/07/01 10:21:46;;;;;;;;;0.00;0.00;;;;;20.52;43.52;101635.53;6272235;22;45628;-77
2022/07/01 10:24:13;;;;;;;;;0.33;0.33;;;;;20.61;43.61;101631.72;6274566;22;45465;-79
2022/07/01 10:26:40;;;;;;;;;0.67;0.67;;;;;20.65;43.05;101638.75;6272521;22;45562;-77
2022/07/01 10:29:25;;;;;;;;;0.00;0.00;;;;;20.74;43.25;101632.22;6273341;22;45851;-77
2022/07/01 10:31:50;;;;;;;;;2.00;0.00;;;;;20.84;43.16;101636.34;6245292;22;46906;-78
2022/07/01 10:34:18;;;;;;;;;0.00;0.00;;;;;20.84;42.74;101633.69;6247917;22;45336;-79
2022/07/01 10:36:43;;;;;;;;;0.00;0.00;;;;;20.77;42.59;101635.69;6277299;22;45311;-78
2022/07/01 10:39:13;;;;;;;;;0.00;0.00;;;;;20.75;42.17;101629.50;6278152;22;45205;-75
2022/07/01 10:41:45;;;;;;;;;0.00;0.00;;;;;20.76;42.50;101628.56;6277175;22;45399;-77
2022/07/01 10:44:15;;;;;;;;;0.00;0.00;;;;;20.83;42.65;101629.25;6277234;22;45394;-78
2022/07/01 10:46:45;;;;;;;;;0.00;0.00;;;;;20.89;41.71;101627.25;6249847;22;45434;-78
2022/07/01 10:49:12;;;;;;;;;0.00;0.00;;;;;20.96;42.06;101630.59;6249692;22;45534;-77
2022/07/01 10:51:57;;;;;;;;;2.00;0.33;;;;;21.06;41.72;101634.75;6248551;22;46857;-75
2022/07/01 10:54:35;;;;;;;;;0.00;0.00;;;;;21.27;41.59;101633.13;6277532;22;45331;-76
2022/07/01 10:57:15;;;;;;;;;2.00;0.00;;;;;21.50;41.25;101634.19;6277892;22;45268;-76
2022/07/01 10:59:41;;;;;;;;;0.33;0.33;;;;;21.74;41.33;101630.63;6277575;22;45366;-76
2022/07/01 11:02:17;;;;;;;;;0.00;0.00;;;;;21.87;40.61;101636.41;6277199;22;46386;-76
2022/07/01 11:07:46;;;;;;;;;0.00;0.00;;;;;22.11;40.01;101642.69;6246916;22;45382;-76
2022/07/01 11:10:15;;;;;;;;;3.00;1.00;;;;;22.20;40.54;101638.81;6276386;22;45344;-75
2022/07/01 11:12:43;;;;;;;;;2.00;1.67;;;;;22.28;39.59;101628.66;6248710;22;46182;-76
2022/07/01 11:15:10;;;;;;;;;1.00;1.00;;;;;22.34;39.67;101638.25;6277707;22;45174;-76
2022/07/01 11:17:42;;;;;;;;;1.00;1.00;;;;;22.29;39.46;101638.44;6277500;22;45371;-76
2022/07/01 11:20:08;;;;;;;;;2.00;1.00;;;;;22.18;39.38;101628.13;6276961;22;45562;-76
2022/07/01 11:22:34;;;;;;;;;1.33;1.33;;;;;22.14;39.82;101641.69;6277763;22;45262;-75
2022/07/01 11:25:08;;;;;;;;;1.33;1.33;;;;;22.11;39.62;101626.59;6277237;22;45221;-75
2022/07/01 11:27:35;;;;;;;;;1.00;1.00;;;;;22.16;39.81;101623.72;6277334;22;45106;-75
2022/07/01 11:30:09;;;;;;;;;2.00;2.00;;;;;22.32;39.87;101626.72;6277405;22;45370;-76
2022/07/01 11:32:36;;;;;;;;;1.00;1.00;;;;;22.54;39.22;101629.47;6277501;22;45539;-76
2022/07/01 11:39:21;;;;;;;;;0.00;0.00;;;;;22.72;38.60;101630.50;6249902;22;45313;-76
2022/07/01 11:40:35;;;;;;;;;0.67;0.00;;;;;22.80;38.13;101628.38;6277955;22;45334;-75